sensor_id;sensor_type;location;lat;lon;timestamp;P1;durP1;ratioP1;P2;durP2;ratioP2
18001;SDS011;9126;48.160;17.130;2022-09-12T00:00:27;10.70;;;9.70;;
18001;SDS011;9126;48.160;17.130;2022-09-12T00:02:56;10.03;;;9.03;;
18001;SDS011;9126;48.160;17.130;2022-09-12T00:05:25;9.73;;;8.83;;
18001;SDS011;9126;48.160;17.130;2022-09-12T00:07:53;11.37;;;10.20;;
18001;SDS011;9126;48.160;17.130;2022-09-12T00:10:20;10.67;;;9.77;;
18001;SDS011;9126;48.160;17.130;2022-09-12T00:12:49;10.67;;;9.60;;
18001;SDS011;9126;48.160;17.130;2022-09-12T00:15:17;10.20;;;9.27;;
18001;SDS011;9126;48.160;17.130;2022-09-12T00:17:44;14.27;;;9.40;;
18001;SDS011;9126;48.160;17.130;2022-09-12T00:20:11;11.17;;;9.37;;
18001;SDS011;9126;48.160;17.130;2022-09-12T00:22:38;9.93;;;8.93;;
18001;SDS011;9126;48.160;17.130;2022-09-12T00:25:06;9.67;;;8.60;;
18001;SDS011;9126;48.160;17.130;2022-09-12T00:27:34;10.73;;;9.40;;
18001;SDS011;9126;48.160;17.130;2022-09-12T00:30:11;9.57;;;8.63;;
18001;SDS011;9126;48.160;17.130;2022-09-12T00:32:39;9.43;;;8.53;;
18001;SDS011;9126;48.160;17.130;2022-09-12T00:35:12;10.33;;;8.60;;
18001;SDS011;9126;48.160;17.130;2022-09-12T00:37:40;9.40;;;8.53;;
18001;SDS011;9126;48.160;17.130;2022-09-12T00:40:08;8.63;;;7.83;;
18001;SDS011;9126;48.160;17.130;2022-09-12T00:42:36;9.03;;;8.20;;
18001;SDS011;9126;48.160;17.130;2022-09-12T00:45:03;9.03;;;8.17;;
18001;SDS011;9126;48.160;17.130;2022-09-12T00:47:32;9.57;;;8.30;;
18001;SDS011;9126;48.160;17.130;2022-09-12T00:50:04;8.93;;;8.13;;
18001;SDS011;9126;48.160;17.130;2022-09-12T00:52:36;8.77;;;8.07;;
18001;SDS011;9126;48.160;17.130;2022-09-12T00:55:10;8.70;;;7.90;;
18001;SDS011;9126;48.160;17.130;2022-09-12T00:57:41;8.20;;;7.40;;
18001;SDS011;9126;48.160;17.130;2022-09-12T01:00:15;7.93;;;7.10;;
18001;SDS011;9126;48.160;17.130;2022-09-12T01:02:49;9.17;;;7.50;;
18001;SDS011;9126;48.160;17.130;2022-09-12T01:05:20;7.90;;;7.07;;
18001;SDS011;9126;48.160;17.130;2022-09-12T01:07:49;9.27;;;7.20;;
18001;SDS011;9126;48.160;17.130;2022-09-12T01:10:17;8.53;;;7.60;;
18001;SDS011;9126;48.160;17.130;2022-09-12T01:12:45;7.50;;;6.80;;
18001;SDS011;9126;48.160;17.130;2022-09-12T01:15:13;7.97;;;6.90;;
18001;SDS011;9126;48.160;17.130;2022-09-12T01:17:45;9.40;;;7.60;;
18001;SDS011;9126;48.160;17.130;2022-09-12T01:20:31;8.50;;;7.67;;
18001;SDS011;9126;48.160;17.130;2022-09-12T01:26:44;7.30;;;6.70;;
18001;SDS011;9126;48.160;17.130;2022-09-12T01:29:34;7.83;;;7.13;;
18001;SDS011;9126;48.160;17.130;2022-09-12T01:32:29;8.10;;;7.30;;
18001;SDS011;9126;48.160;17.130;2022-09-12T01:35:13;7.73;;;7.03;;
18001;SDS011;9126;48.160;17.130;2022-09-12T01:37:50;7.50;;;6.90;;
18001;SDS011;9126;48.160;17.130;2022-09-12T01:40:27;7.90;;;7.10;;
18001;SDS011;9126;48.160;17.130;2022-09-12T01:43:03;7.93;;;7.23;;
18001;SDS011;9126;48.160;17.130;2022-09-12T01:45:43;7.20;;;6.50;;
18001;SDS011;9126;48.160;17.130;2022-09-12T01:48:18;9.60;;;7.33;;
18001;SDS011;9126;48.160;17.130;2022-09-12T01:50:49;7.07;;;6.57;;
18001;SDS011;9126;48.160;17.130;2022-09-12T01:53:19;8.20;;;7.40;;
18001;SDS011;9126;48.160;17.130;2022-09-12T01:55:51;8.23;;;7.33;;
18001;SDS011;9126;48.160;17.130;2022-09-12T01:58:24;8.27;;;7.47;;
18001;SDS011;9126;48.160;17.130;2022-09-12T02:00:57;8.30;;;7.57;;
18001;SDS011;9126;48.160;17.130;2022-09-12T02:03:31;8.23;;;6.97;;
18001;SDS011;9126;48.160;17.130;2022-09-12T02:06:05;6.97;;;6.27;;
18001;SDS011;9126;48.160;17.130;2022-09-12T02:08:37;7.27;;;6.67;;
18001;SDS011;9126;48.160;17.130;2022-09-12T02:11:09;7.03;;;6.33;;
18001;SDS011;9126;48.160;17.130;2022-09-12T02:13:38;6.37;;;5.87;;
18001;SDS011;9126;48.160;17.130;2022-09-12T02:16:10;7.10;;;6.30;;
18001;SDS011;9126;48.160;17.130;2022-09-12T02:18:48;7.13;;;6.13;;
18001;SDS011;9126;48.160;17.130;2022-09-12T02:21:19;7.23;;;5.90;;
18001;SDS011;9126;48.160;17.130;2022-09-12T02:23:49;6.97;;;6.27;;
18001;SDS011;9126;48.160;17.130;2022-09-12T02:26:24;7.03;;;6.33;;
18001;SDS011;9126;48.160;17.130;2022-09-12T02:28:57;6.67;;;5.87;;
18001;SDS011;9126;48.160;17.130;2022-09-12T02:31:26;8.17;;;6.07;;
18001;SDS011;9126;48.160;17.130;2022-09-12T02:34:03;5.93;;;5.43;;
18001;SDS011;9126;48.160;17.130;2022-09-12T02:36:38;7.40;;;6.53;;
18001;SDS011;9126;48.160;17.130;2022-09-12T02:39:16;7.23;;;5.93;;
18001;SDS011;9126;48.160;17.130;2022-09-12T02:41:45;6.77;;;6.07;;
18001;SDS011;9126;48.160;17.130;2022-09-12T02:44:13;7.33;;;5.67;;
18001;SDS011;9126;48.160;17.130;2022-09-12T02:46:41;9.00;;;6.20;;
18001;SDS011;9126;48.160;17.130;2022-09-12T02:49:14;6.33;;;5.57;;
18001;SDS011;9126;48.160;17.130;2022-09-12T02:51:42;7.43;;;5.60;;
18001;SDS011;9126;48.160;17.130;2022-09-12T02:54:12;8.10;;;5.47;;
18001;SDS011;9126;48.160;17.130;2022-09-12T02:56:42;6.63;;;5.97;;
18001;SDS011;9126;48.160;17.130;2022-09-12T02:59:13;6.47;;;5.63;;
18001;SDS011;9126;48.160;17.130;2022-09-12T03:01:47;6.47;;;5.37;;
18001;SDS011;9126;48.160;17.130;2022-09-12T03:04:36;6.70;;;5.60;;
18001;SDS011;9126;48.160;17.130;2022-09-12T03:07:39;6.47;;;5.03;;
18001;SDS011;9126;48.160;17.130;2022-09-12T03:10:32;5.77;;;5.27;;
18001;SDS011;9126;48.160;17.130;2022-09-12T03:13:08;5.30;;;4.90;;
18001;SDS011;9126;48.160;17.130;2022-09-12T03:15:48;6.17;;;5.13;;
18001;SDS011;9126;48.160;17.130;2022-09-12T03:18:28;6.83;;;5.17;;
18001;SDS011;9126;48.160;17.130;2022-09-12T03:21:07;6.13;;;5.37;;
18001;SDS011;9126;48.160;17.130;2022-09-12T03:23:40;5.17;;;4.70;;
18001;SDS011;9126;48.160;17.130;2022-09-12T03:26:14;8.57;;;5.13;;
18001;SDS011;9126;48.160;17.130;2022-09-12T03:28:46;6.47;;;5.13;;
18001;SDS011;9126;48.160;17.130;2022-09-12T03:31:15;5.73;;;5.13;;
18001;SDS011;9126;48.160;17.130;2022-09-12T03:33:44;7.13;;;4.90;;
18001;SDS011;9126;48.160;17.130;2022-09-12T03:36:15;5.53;;;5.03;;
18001;SDS011;9126;48.160;17.130;2022-09-12T03:38:45;5.23;;;4.83;;
18001;SDS011;9126;48.160;17.130;2022-09-12T03:41:12;5.57;;;5.07;;
18001;SDS011;9126;48.160;17.130;2022-09-12T03:43:40;8.17;;;5.30;;
18001;SDS011;9126;48.160;17.130;2022-09-12T03:46:08;6.13;;;4.87;;
18001;SDS011;9126;48.160;17.130;2022-09-12T03:48:35;5.67;;;5.10;;
18001;SDS011;9126;48.160;17.130;2022-09-12T03:51:05;6.00;;;5.40;;
18001;SDS011;9126;48.160;17.130;2022-09-12T03:53:36;5.27;;;4.77;;
18001;SDS011;9126;48.160;17.130;2022-09-12T03:56:07;6.37;;;5.10;;
18001;SDS011;9126;48.160;17.130;2022-09-12T03:58:36;8.83;;;5.10;;
18001;SDS011;9126;48.160;17.130;2022-09-12T04:01:06;5.97;;;4.77;;
18001;SDS011;9126;48.160;17.130;2022-09-12T04:03:37;5.47;;;4.50;;
18001;SDS011;9126;48.160;17.130;2022-09-12T04:06:05;6.77;;;5.37;;
18001;SDS011;9126;48.160;17.130;2022-09-12T04:08:33;5.53;;;5.03;;
18001;SDS011;9126;48.160;17.130;2022-09-12T04:11:02;5.57;;;5.07;;
18001;SDS011;9126;48.160;17.130;2022-09-12T04:13:31;8.00;;;5.50;;
18001;SDS011;9126;48.160;17.130;2022-09-12T04:16:00;5.63;;;5.13;;
18001;SDS011;9126;48.160;17.130;2022-09-12T04:18:28;7.60;;;5.80;;
18001;SDS011;9126;48.160;17.130;2022-09-12T04:20:55;7.43;;;5.40;;
18001;SDS011;9126;48.160;17.130;2022-09-12T04:23:22;5.23;;;4.83;;
18001;SDS011;9126;48.160;17.130;2022-09-12T04:25:53;6.50;;;5.70;;
18001;SDS011;9126;48.160;17.130;2022-09-12T04:28:22;6.53;;;5.37;;
18001;SDS011;9126;48.160;17.130;2022-09-12T04:30:53;5.73;;;5.17;;
18001;SDS011;9126;48.160;17.130;2022-09-12T04:33:21;5.93;;;5.40;;
18001;SDS011;9126;48.160;17.130;2022-09-12T04:35:49;6.10;;;5.50;;
18001;SDS011;9126;48.160;17.130;2022-09-12T04:38:19;5.60;;;5.10;;
18001;SDS011;9126;48.160;17.130;2022-09-12T04:40:50;6.50;;;5.03;;
18001;SDS011;9126;48.160;17.130;2022-09-12T04:43:22;6.07;;;5.37;;
18001;SDS011;9126;48.160;17.130;2022-09-12T04:45:51;6.27;;;5.57;;
18001;SDS011;9126;48.160;17.130;2022-09-12T04:48:18;5.80;;;5.20;;
18001;SDS011;9126;48.160;17.130;2022-09-12T04:50:46;6.47;;;4.97;;
18001;SDS011;9126;48.160;17.130;2022-09-12T04:53:13;8.93;;;5.33;;
18001;SDS011;9126;48.160;17.130;2022-09-12T04:55:41;7.57;;;5.67;;
18001;SDS011;9126;48.160;17.130;2022-09-12T04:58:11;5.77;;;5.27;;
18001;SDS011;9126;48.160;17.130;2022-09-12T05:00:40;6.37;;;5.33;;
18001;SDS011;9126;48.160;17.130;2022-09-12T05:03:08;6.00;;;5.20;;
18001;SDS011;9126;48.160;17.130;2022-09-12T05:05:36;6.07;;;5.47;;
18001;SDS011;9126;48.160;17.130;2022-09-12T05:08:04;5.97;;;5.37;;
18001;SDS011;9126;48.160;17.130;2022-09-12T05:10:31;6.83;;;5.10;;
18001;SDS011;9126;48.160;17.130;2022-09-12T05:13:00;6.07;;;5.40;;
18001;SDS011;9126;48.160;17.130;2022-09-12T05:15:27;7.60;;;5.77;;
18001;SDS011;9126;48.160;17.130;2022-09-12T05:17:56;5.77;;;5.37;;
18001;SDS011;9126;48.160;17.130;2022-09-12T05:20:27;7.23;;;6.30;;
18001;SDS011;9126;48.160;17.130;2022-09-12T05:22:58;7.87;;;5.70;;
18001;SDS011;9126;48.160;17.130;2022-09-12T05:25:28;6.50;;;5.90;;
18001;SDS011;9126;48.160;17.130;2022-09-12T05:27:56;6.50;;;5.90;;
18001;SDS011;9126;48.160;17.130;2022-09-12T05:30:23;7.20;;;6.10;;
18001;SDS011;9126;48.160;17.130;2022-09-12T05:32:50;6.77;;;5.30;;
18001;SDS011;9126;48.160;17.130;2022-09-12T05:35:19;5.73;;;5.23;;
18001;SDS011;9126;48.160;17.130;2022-09-12T05:37:48;5.57;;;5.07;;
18001;SDS011;9126;48.160;17.130;2022-09-12T05:40:15;8.17;;;5.60;;
18001;SDS011;9126;48.160;17.130;2022-09-12T05:42:43;6.78;;;5.22;;
18001;SDS011;9126;48.160;17.130;2022-09-12T05:45:10;7.27;;;5.60;;
18001;SDS011;9126;48.160;17.130;2022-09-12T05:47:39;7.17;;;5.70;;
18001;SDS011;9126;48.160;17.130;2022-09-12T05:50:08;6.85;;;5.00;;
18001;SDS011;9126;48.160;17.130;2022-09-12T05:52:38;7.18;;;5.20;;
18001;SDS011;9126;48.160;17.130;2022-09-12T05:55:06;5.73;;;4.80;;
18001;SDS011;9126;48.160;17.130;2022-09-12T05:57:36;6.13;;;5.57;;
18001;SDS011;9126;48.160;17.130;2022-09-12T06:00:08;5.65;;;5.05;;
18001;SDS011;9126;48.160;17.130;2022-09-12T06:02:37;5.93;;;5.20;;
18001;SDS011;9126;48.160;17.130;2022-09-12T06:05:06;5.83;;;5.33;;
18001;SDS011;9126;48.160;17.130;2022-09-12T06:07:33;9.20;;;5.83;;
18001;SDS011;9126;48.160;17.130;2022-09-12T06:10:04;6.70;;;5.80;;
18001;SDS011;9126;48.160;17.130;2022-09-12T06:12:35;6.17;;;5.40;;
18001;SDS011;9126;48.160;17.130;2022-09-12T06:15:02;6.17;;;5.50;;
18001;SDS011;9126;48.160;17.130;2022-09-12T06:17:30;7.85;;;5.82;;
18001;SDS011;9126;48.160;17.130;2022-09-12T06:20:01;6.13;;;5.20;;
18001;SDS011;9126;48.160;17.130;2022-09-12T06:22:29;7.63;;;5.70;;
18001;SDS011;9126;48.160;17.130;2022-09-12T06:24:58;8.43;;;5.47;;
18001;SDS011;9126;48.160;17.130;2022-09-12T06:27:27;6.75;;;5.20;;
18001;SDS011;9126;48.160;17.130;2022-09-12T06:29:54;6.78;;;5.55;;
18001;SDS011;9126;48.160;17.130;2022-09-12T06:32:21;5.63;;;5.13;;
18001;SDS011;9126;48.160;17.130;2022-09-12T06:35:44;6.38;;;5.78;;
18001;SDS011;9126;48.160;17.130;2022-09-12T06:38:12;6.80;;;5.17;;
18001;SDS011;9126;48.160;17.130;2022-09-12T06:41:17;8.00;;;5.72;;
18001;SDS011;9126;48.160;17.130;2022-09-12T06:50:06;6.43;;;5.80;;
18001;SDS011;9126;48.160;17.130;2022-09-12T06:53:10;9.00;;;5.17;;
18001;SDS011;9126;48.160;17.130;2022-09-12T06:56:08;6.57;;;5.25;;
18001;SDS011;9126;48.160;17.130;2022-09-12T06:58:40;9.63;;;5.50;;
18001;SDS011;9126;48.160;17.130;2022-09-12T07:01:17;6.47;;;5.05;;
18001;SDS011;9126;48.160;17.130;2022-09-12T07:03:51;6.53;;;4.80;;
18001;SDS011;9126;48.160;17.130;2022-09-12T07:06:20;5.60;;;4.70;;
18001;SDS011;9126;48.160;17.130;2022-09-12T07:08:56;7.45;;;4.63;;
18001;SDS011;9126;48.160;17.130;2022-09-12T07:11:25;7.90;;;4.80;;
18001;SDS011;9126;48.160;17.130;2022-09-12T07:13:55;8.93;;;4.82;;
18001;SDS011;9126;48.160;17.130;2022-09-12T07:16:24;9.52;;;4.90;;
18001;SDS011;9126;48.160;17.130;2022-09-12T07:18:53;6.90;;;5.07;;
18001;SDS011;9126;48.160;17.130;2022-09-12T07:21:22;5.50;;;4.78;;
18001;SDS011;9126;48.160;17.130;2022-09-12T07:23:50;8.18;;;4.47;;
18001;SDS011;9126;48.160;17.130;2022-09-12T07:26:19;7.05;;;5.05;;
18001;SDS011;9126;48.160;17.130;2022-09-12T07:28:49;5.22;;;4.63;;
18001;SDS011;9126;48.160;17.130;2022-09-12T07:31:19;6.03;;;4.80;;
18001;SDS011;9126;48.160;17.130;2022-09-12T07:33:48;5.63;;;4.93;;
18001;SDS011;9126;48.160;17.130;2022-09-12T07:36:23;5.32;;;4.82;;
18001;SDS011;9126;48.160;17.130;2022-09-12T07:38:54;8.18;;;4.68;;
18001;SDS011;9126;48.160;17.130;2022-09-12T07:41:29;7.55;;;4.95;;
18001;SDS011;9126;48.160;17.130;2022-09-12T07:43:59;7.13;;;5.00;;
18001;SDS011;9126;48.160;17.130;2022-09-12T07:46:33;5.13;;;4.00;;
18001;SDS011;9126;48.160;17.130;2022-09-12T07:49:14;8.38;;;4.72;;
18001;SDS011;9126;48.160;17.130;2022-09-12T07:52:48;5.10;;;4.60;;
18001;SDS011;9126;48.160;17.130;2022-09-12T08:26:13;6.85;;;6.18;;
18001;SDS011;9126;48.160;17.130;2022-09-12T08:28:42;7.75;;;5.40;;
18001;SDS011;9126;48.160;17.130;2022-09-12T08:31:12;7.15;;;5.25;;
18001;SDS011;9126;48.160;17.130;2022-09-12T08:33:44;7.22;;;5.72;;
18001;SDS011;9126;48.160;17.130;2022-09-12T08:36:12;7.90;;;6.13;;
18001;SDS011;9126;48.160;17.130;2022-09-12T08:38:40;11.82;;;6.70;;
18001;SDS011;9126;48.160;17.130;2022-09-12T08:41:13;7.57;;;5.72;;
18001;SDS011;9126;48.160;17.130;2022-09-12T08:49:53;7.40;;;6.50;;
18001;SDS011;9126;48.160;17.130;2022-09-12T08:52:38;6.80;;;5.78;;
18001;SDS011;9126;48.160;17.130;2022-09-12T08:55:18;5.95;;;5.35;;
18001;SDS011;9126;48.160;17.130;2022-09-12T08:57:57;6.80;;;5.38;;
18001;SDS011;9126;48.160;17.130;2022-09-12T09:00:27;5.95;;;5.35;;
18001;SDS011;9126;48.160;17.130;2022-09-12T09:03:14;5.97;;;5.35;;
18001;SDS011;9126;48.160;17.130;2022-09-12T09:06:02;5.00;;;4.50;;
18001;SDS011;9126;48.160;17.130;2022-09-12T09:08:42;5.18;;;4.78;;
18001;SDS011;9126;48.160;17.130;2022-09-12T09:15:42;8.88;;;5.63;;
18001;SDS011;9126;48.160;17.130;2022-09-12T09:22:31;5.88;;;5.32;;
18001;SDS011;9126;48.160;17.130;2022-09-12T09:25:05;5.60;;;5.05;;
18001;SDS011;9126;48.160;17.130;2022-09-12T09:27:39;5.80;;;4.53;;
18001;SDS011;9126;48.160;17.130;2022-09-12T09:30:28;7.40;;;4.65;;
18001;SDS011;9126;48.160;17.130;2022-09-12T09:32:58;6.60;;;4.90;;
18001;SDS011;9126;48.160;17.130;2022-09-12T09:35:28;5.80;;;4.82;;
18001;SDS011;9126;48.160;17.130;2022-09-12T09:38:11;5.38;;;4.65;;
18001;SDS011;9126;48.160;17.130;2022-09-12T09:40:50;7.10;;;4.72;;
18001;SDS011;9126;48.160;17.130;2022-09-12T09:43:27;4.70;;;4.18;;
18001;SDS011;9126;48.160;17.130;2022-09-12T09:45:55;4.55;;;4.15;;
18001;SDS011;9126;48.160;17.130;2022-09-12T09:48:25;5.10;;;3.95;;
18001;SDS011;9126;48.160;17.130;2022-09-12T09:50:56;4.05;;;3.75;;
18001;SDS011;9126;48.160;17.130;2022-09-12T09:53:40;5.25;;;4.00;;
18001;SDS011;9126;48.160;17.130;2022-09-12T09:56:13;3.63;;;3.33;;
18001;SDS011;9126;48.160;17.130;2022-09-12T09:58:48;5.80;;;4.03;;
18001;SDS011;9126;48.160;17.130;2022-09-12T10:01:15;6.65;;;3.65;;
18001;SDS011;9126;48.160;17.130;2022-09-12T10:03:51;5.05;;;3.70;;
18001;SDS011;9126;48.160;17.130;2022-09-12T10:06:47;10.00;;;4.07;;
18001;SDS011;9126;48.160;17.130;2022-09-12T10:09:23;5.03;;;4.43;;
18001;SDS011;9126;48.160;17.130;2022-09-12T10:11:52;4.63;;;3.70;;
18001;SDS011;9126;48.160;17.130;2022-09-12T10:14:33;3.92;;;3.63;;
18001;SDS011;9126;48.160;17.130;2022-09-12T10:17:08;9.35;;;4.60;;
18001;SDS011;9126;48.160;17.130;2022-09-12T10:19:50;17.35;;;5.40;;
18001;SDS011;9126;48.160;17.130;2022-09-12T10:22:18;5.15;;;4.65;;
18001;SDS011;9126;48.160;17.130;2022-09-12T10:24:48;5.47;;;4.97;;
18001;SDS011;9126;48.160;17.130;2022-09-12T10:27:18;5.10;;;4.43;;
18001;SDS011;9126;48.160;17.130;2022-09-12T10:29:48;6.75;;;4.10;;
18001;SDS011;9126;48.160;17.130;2022-09-12T10:32:20;5.72;;;4.00;;
18001;SDS011;9126;48.160;17.130;2022-09-12T10:34:52;5.63;;;4.00;;
18001;SDS011;9126;48.160;17.130;2022-09-12T10:37:23;5.97;;;3.83;;
18001;SDS011;9126;48.160;17.130;2022-09-12T10:39:55;4.65;;;4.07;;
18001;SDS011;9126;48.160;17.130;2022-09-12T10:42:43;5.10;;;4.20;;
18001;SDS011;9126;48.160;17.130;2022-09-12T10:45:20;5.63;;;4.05;;
18001;SDS011;9126;48.160;17.130;2022-09-12T10:47:49;7.13;;;4.15;;
18001;SDS011;9126;48.160;17.130;2022-09-12T10:50:21;7.85;;;4.45;;
18001;SDS011;9126;48.160;17.130;2022-09-12T10:53:11;10.73;;;3.75;;
18001;SDS011;9126;48.160;17.130;2022-09-12T10:58:35;5.70;;;3.15;;
18001;SDS011;9126;48.160;17.130;2022-09-12T11:01:34;3.90;;;3.60;;
18001;SDS011;9126;48.160;17.130;2022-09-12T11:04:23;4.68;;;3.95;;
18001;SDS011;9126;48.160;17.130;2022-09-12T11:07:00;2.92;;;2.72;;
18001;SDS011;9126;48.160;17.130;2022-09-12T11:09:35;3.22;;;2.63;;
18001;SDS011;9126;48.160;17.130;2022-09-12T11:12:08;6.20;;;2.60;;
18001;SDS011;9126;48.160;17.130;2022-09-12T11:14:45;3.00;;;2.70;;
18001;SDS011;9126;48.160;17.130;2022-09-12T11:17:28;2.90;;;2.63;;
18001;SDS011;9126;48.160;17.130;2022-09-12T11:20:09;2.67;;;2.47;;
18001;SDS011;9126;48.160;17.130;2022-09-12T11:23:02;7.00;;;3.20;;
18001;SDS011;9126;48.160;17.130;2022-09-12T11:25:47;3.47;;;3.00;;
18001;SDS011;9126;48.160;17.130;2022-09-12T11:28:27;5.10;;;3.22;;
18001;SDS011;9126;48.160;17.130;2022-09-12T11:31:07;3.97;;;2.80;;
18001;SDS011;9126;48.160;17.130;2022-09-12T11:33:53;3.95;;;2.80;;
18001;SDS011;9126;48.160;17.130;2022-09-12T11:36:26;2.60;;;2.40;;
18001;SDS011;9126;48.160;17.130;2022-09-12T11:39:04;2.92;;;2.53;;
18001;SDS011;9126;48.160;17.130;2022-09-12T11:41:38;3.40;;;2.45;;
18001;SDS011;9126;48.160;17.130;2022-09-12T11:44:10;3.75;;;2.80;;
18001;SDS011;9126;48.160;17.130;2022-09-12T11:46:42;2.47;;;2.28;;
18001;SDS011;9126;48.160;17.130;2022-09-12T11:49:16;3.45;;;2.47;;
18001;SDS011;9126;48.160;17.130;2022-09-12T11:51:51;5.22;;;2.30;;
18001;SDS011;9126;48.160;17.130;2022-09-12T11:54:23;3.40;;;2.33;;
18001;SDS011;9126;48.160;17.130;2022-09-12T11:56:58;3.28;;;2.55;;
18001;SDS011;9126;48.160;17.130;2022-09-12T11:59:34;3.90;;;2.50;;
18001;SDS011;9126;48.160;17.130;2022-09-12T12:02:10;4.63;;;2.40;;
18001;SDS011;9126;48.160;17.130;2022-09-12T12:04:40;5.32;;;2.95;;
18001;SDS011;9126;48.160;17.130;2022-09-12T12:07:15;2.70;;;2.50;;
18001;SDS011;9126;48.160;17.130;2022-09-12T12:09:48;4.38;;;2.38;;
18001;SDS011;9126;48.160;17.130;2022-09-12T12:12:24;4.25;;;2.63;;
18001;SDS011;9126;48.160;17.130;2022-09-12T12:14:54;3.90;;;2.90;;
18001;SDS011;9126;48.160;17.130;2022-09-12T12:17:23;3.05;;;2.22;;
18001;SDS011;9126;48.160;17.130;2022-09-12T12:19:58;3.15;;;2.45;;
18001;SDS011;9126;48.160;17.130;2022-09-12T12:22:27;2.55;;;2.28;;
18001;SDS011;9126;48.160;17.130;2022-09-12T12:24:59;2.58;;;2.28;;
18001;SDS011;9126;48.160;17.130;2022-09-12T12:52:13;3.30;;;3.00;;
18001;SDS011;9126;48.160;17.130;2022-09-12T12:54:59;2.83;;;2.60;;
18001;SDS011;9126;48.160;17.130;2022-09-12T12:58:03;2.55;;;2.30;;
18001;SDS011;9126;48.160;17.130;2022-09-12T13:01:35;3.05;;;2.75;;
18001;SDS011;9126;48.160;17.130;2022-09-12T13:04:10;4.55;;;2.78;;
18001;SDS011;9126;48.160;17.130;2022-09-12T13:06:40;4.05;;;2.63;;
18001;SDS011;9126;48.160;17.130;2022-09-12T13:09:16;2.88;;;2.50;;
18001;SDS011;9126;48.160;17.130;2022-09-12T13:11:47;2.80;;;2.60;;
18001;SDS011;9126;48.160;17.130;2022-09-12T13:14:50;2.60;;;2.40;;
18001;SDS011;9126;48.160;17.130;2022-09-12T13:17:58;2.78;;;2.58;;
18001;SDS011;9126;48.160;17.130;2022-09-12T13:20:30;2.80;;;2.60;;
18001;SDS011;9126;48.160;17.130;2022-09-12T13:23:27;4.40;;;3.10;;
18001;SDS011;9126;48.160;17.130;2022-09-12T13:25:57;2.58;;;2.35;;
18001;SDS011;9126;48.160;17.130;2022-09-12T13:28:26;6.90;;;3.10;;
18001;SDS011;9126;48.160;17.130;2022-09-12T13:30:55;4.22;;;2.88;;
18001;SDS011;9126;48.160;17.130;2022-09-12T13:33:28;2.55;;;2.25;;
18001;SDS011;9126;48.160;17.130;2022-09-12T13:36:21;2.70;;;2.50;;
18001;SDS011;9126;48.160;17.130;2022-09-12T13:39:11;2.92;;;2.65;;
18001;SDS011;9126;48.160;17.130;2022-09-12T13:45:17;2.97;;;2.47;;
18001;SDS011;9126;48.160;17.130;2022-09-12T13:47:49;2.42;;;2.22;;
18001;SDS011;9126;48.160;17.130;2022-09-12T13:50:22;3.10;;;2.60;;
18001;SDS011;9126;48.160;17.130;2022-09-12T13:52:51;2.58;;;2.38;;
18001;SDS011;9126;48.160;17.130;2022-09-12T13:55:41;2.72;;;2.53;;
18001;SDS011;9126;48.160;17.130;2022-09-12T13:58:18;2.60;;;2.40;;
18001;SDS011;9126;48.160;17.130;2022-09-12T14:01:17;2.75;;;2.22;;
18001;SDS011;9126;48.160;17.130;2022-09-12T14:03:48;2.40;;;2.30;;
18001;SDS011;9126;48.160;17.130;2022-09-12T14:13:28;2.40;;;2.20;;
18001;SDS011;9126;48.160;17.130;2022-09-12T14:16:15;2.65;;;2.45;;
18001;SDS011;9126;48.160;17.130;2022-09-12T14:18:49;2.97;;;2.35;;
18001;SDS011;9126;48.160;17.130;2022-09-12T14:21:31;2.60;;;2.40;;
18001;SDS011;9126;48.160;17.130;2022-09-12T14:24:55;2.22;;;2.03;;
18001;SDS011;9126;48.160;17.130;2022-09-12T14:27:27;2.35;;;2.15;;
18001;SDS011;9126;48.160;17.130;2022-09-12T14:30:00;2.63;;;2.42;;
18001;SDS011;9126;48.160;17.130;2022-09-12T14:36:49;6.00;;;2.92;;
18001;SDS011;9126;48.160;17.130;2022-09-12T14:39:21;3.53;;;2.35;;
18001;SDS011;9126;48.160;17.130;2022-09-12T14:42:01;3.22;;;2.90;;
18001;SDS011;9126;48.160;17.130;2022-09-12T14:44:37;3.22;;;2.28;;
18001;SDS011;9126;48.160;17.130;2022-09-12T14:47:12;3.10;;;2.25;;
18001;SDS011;9126;48.160;17.130;2022-09-12T14:49:46;2.90;;;2.70;;
18001;SDS011;9126;48.160;17.130;2022-09-12T14:52:21;3.00;;;2.50;;
18001;SDS011;9126;48.160;17.130;2022-09-12T14:54:55;3.10;;;2.90;;
18001;SDS011;9126;48.160;17.130;2022-09-12T14:57:31;5.88;;;3.05;;
18001;SDS011;9126;48.160;17.130;2022-09-12T15:03:35;3.83;;;2.85;;
18001;SDS011;9126;48.160;17.130;2022-09-12T15:06:17;4.60;;;2.78;;
18001;SDS011;9126;48.160;17.130;2022-09-12T15:08:54;2.83;;;2.53;;
18001;SDS011;9126;48.160;17.130;2022-09-12T15:14:17;3.28;;;2.30;;
18001;SDS011;9126;48.160;17.130;2022-09-12T15:16:45;3.40;;;2.17;;
18001;SDS011;9126;48.160;17.130;2022-09-12T15:19:14;2.58;;;2.22;;
18001;SDS011;9126;48.160;17.130;2022-09-12T15:21:41;5.88;;;2.40;;
18001;SDS011;9126;48.160;17.130;2022-09-12T15:24:09;3.08;;;2.15;;
18001;SDS011;9126;48.160;17.130;2022-09-12T15:26:36;3.25;;;2.00;;
18001;SDS011;9126;48.160;17.130;2022-09-12T15:29:31;1.70;;;1.60;;
18001;SDS011;9126;48.160;17.130;2022-09-12T15:31:59;5.47;;;2.70;;
18001;SDS011;9126;48.160;17.130;2022-09-12T15:34:28;2.42;;;2.05;;
18001;SDS011;9126;48.160;17.130;2022-09-12T15:36:59;2.95;;;1.88;;
18001;SDS011;9126;48.160;17.130;2022-09-12T15:40:11;2.33;;;1.92;;
18001;SDS011;9126;48.160;17.130;2022-09-12T15:42:38;1.90;;;1.75;;
18001;SDS011;9126;48.160;17.130;2022-09-12T15:45:10;2.65;;;2.00;;
18001;SDS011;9126;48.160;17.130;2022-09-12T15:47:42;2.03;;;1.77;;
18001;SDS011;9126;48.160;17.130;2022-09-12T15:50:14;2.50;;;2.03;;
18001;SDS011;9126;48.160;17.130;2022-09-12T15:52:54;3.25;;;2.28;;
18001;SDS011;9126;48.160;17.130;2022-09-12T15:55:37;2.22;;;2.03;;
18001;SDS011;9126;48.160;17.130;2022-09-12T15:58:38;3.15;;;2.05;;
18001;SDS011;9126;48.160;17.130;2022-09-12T16:01:08;2.78;;;1.52;;
18001;SDS011;9126;48.160;17.130;2022-09-12T16:03:37;2.50;;;1.50;;
18001;SDS011;9126;48.160;17.130;2022-09-12T16:06:06;2.17;;;1.77;;
18001;SDS011;9126;48.160;17.130;2022-09-12T16:08:35;2.75;;;1.77;;
18001;SDS011;9126;48.160;17.130;2022-09-12T16:11:03;4.30;;;1.80;;
18001;SDS011;9126;48.160;17.130;2022-09-12T16:13:36;2.45;;;2.03;;
18001;SDS011;9126;48.160;17.130;2022-09-12T16:16:14;5.57;;;2.17;;
18001;SDS011;9126;48.160;17.130;2022-09-12T16:18:41;6.57;;;2.67;;
18001;SDS011;9126;48.160;17.130;2022-09-12T16:21:09;2.75;;;1.98;;
18001;SDS011;9126;48.160;17.130;2022-09-12T16:23:37;2.90;;;1.98;;
18001;SDS011;9126;48.160;17.130;2022-09-12T16:26:05;1.70;;;1.58;;
18001;SDS011;9126;48.160;17.130;2022-09-12T16:28:32;2.90;;;1.90;;
18001;SDS011;9126;48.160;17.130;2022-09-12T16:31:00;2.30;;;2.10;;
18001;SDS011;9126;48.160;17.130;2022-09-12T16:33:29;2.17;;;1.98;;
18001;SDS011;9126;48.160;17.130;2022-09-12T16:42:48;2.33;;;1.98;;
18001;SDS011;9126;48.160;17.130;2022-09-12T16:46:29;3.65;;;2.20;;
18001;SDS011;9126;48.160;17.130;2022-09-12T16:48:56;4.30;;;2.35;;
18001;SDS011;9126;48.160;17.130;2022-09-12T16:51:29;2.50;;;2.25;;
18001;SDS011;9126;48.160;17.130;2022-09-12T16:54:00;4.80;;;2.17;;
18001;SDS011;9126;48.160;17.130;2022-09-12T16:56:29;2.70;;;2.30;;
18001;SDS011;9126;48.160;17.130;2022-09-12T16:58:58;4.43;;;2.25;;
18001;SDS011;9126;48.160;17.130;2022-09-12T17:01:25;5.32;;;2.42;;
18001;SDS011;9126;48.160;17.130;2022-09-12T17:03:53;4.18;;;2.53;;
18001;SDS011;9126;48.160;17.130;2022-09-12T17:06:21;2.72;;;2.45;;
18001;SDS011;9126;48.160;17.130;2022-09-12T17:08:58;2.10;;;2.00;;
18001;SDS011;9126;48.160;17.130;2022-09-12T17:11:27;3.33;;;2.50;;
18001;SDS011;9126;48.160;17.130;2022-09-12T17:14:24;5.05;;;2.30;;
18001;SDS011;9126;48.160;17.130;2022-09-12T17:16:51;2.47;;;2.20;;
18001;SDS011;9126;48.160;17.130;2022-09-12T17:19:47;2.45;;;2.10;;
18001;SDS011;9126;48.160;17.130;2022-09-12T17:22:21;3.67;;;2.92;;